sensor_id;sensor_type;location;lat;lon;timestamp;pressure;altitude;pressure_sealevel;temperature;humidity
20160;BME280;50187;50.492;12.134;2024-02-26T00:01:37;96164.31;;;15.13;38.80
20160;BME280;50187;50.492;12.134;2024-02-26T00:04:22;96142.19;;;15.03;38.86
20160;BME280;50187;50.492;12.134;2024-02-26T00:07:08;96154.59;;;15.12;38.73
20160;BME280;50187;50.492;12.134;2024-02-26T00:09:53;96151.22;;;15.10;38.76
20160;BME280;50187;50.492;12.134;2024-02-26T00:12:38;96159.25;;;15.10;38.80
20160;BME280;50187;50.492;12.134;2024-02-26T00:15:24;96145.22;;;15.08;39.00
20160;BME280;50187;50.492;12.134;2024-02-26T00:18:10;96141.72;;;15.07;38.93
20160;BME280;50187;50.492;12.134;2024-02-26T00:20:56;96142.53;;;15.08;38.72
20160;BME280;50187;50.492;12.134;2024-02-26T00:23:41;96138.00;;;15.08;38.90
20160;BME280;50187;50.492;12.134;2024-02-26T00:26:27;96118.44;;;15.00;38.98
20160;BME280;50187;50.492;12.134;2024-02-26T00:29:12;96132.16;;;15.05;38.72
20160;BME280;50187;50.492;12.134;2024-02-26T00:31:57;96121.47;;;15.05;38.68
20160;BME280;50187;50.492;12.134;2024-02-26T00:34:43;96117.25;;;15.02;38.72
20160;BME280;50187;50.492;12.134;2024-02-26T00:37:28;96116.28;;;15.03;38.70
20160;BME280;50187;50.492;12.134;2024-02-26T00:40:14;96106.56;;;15.02;38.95
20160;BME280;50187;50.492;12.134;2024-02-26T00:42:59;96108.53;;;15.00;38.65
20160;BME280;50187;50.492;12.134;2024-02-26T00:45:44;96101.19;;;15.02;38.91
20160;BME280;50187;50.492;12.134;2024-02-26T00:48:32;96091.47;;;15.01;38.94
20160;BME280;50187;50.492;12.134;2024-02-26T00:51:17;96093.34;;;15.01;38.92
20160;BME280;50187;50.492;12.134;2024-02-26T00:54:05;96089.66;;;15.02;38.73
20160;BME280;50187;50.492;12.134;2024-02-26T00:56:51;96086.47;;;14.98;38.87
20160;BME280;50187;50.492;12.134;2024-02-26T00:59:36;96078.25;;;15.00;38.77
20160;BME280;50187;50.492;12.134;2024-02-26T01:02:22;96084.63;;;14.99;38.91
20160;BME280;50187;50.492;12.134;2024-02-26T01:05:08;96078.59;;;14.97;38.95
20160;BME280;50187;50.492;12.134;2024-02-26T01:07:56;96077.09;;;14.94;38.86
20160;BME280;50187;50.492;12.134;2024-02-26T01:10:42;96086.63;;;14.97;38.90
20160;BME280;50187;50.492;12.134;2024-02-26T01:13:27;96080.47;;;14.96;38.92
20160;BME280;50187;50.492;12.134;2024-02-26T01:16:12;96077.91;;;14.94;38.74
20160;BME280;50187;50.492;12.134;2024-02-26T01:18:58;96075.41;;;14.93;39.01
20160;BME280;50187;50.492;12.134;2024-02-26T01:21:43;96081.28;;;14.97;38.83
20160;BME280;50187;50.492;12.134;2024-02-26T01:24:29;96076.09;;;14.95;38.83
20160;BME280;50187;50.492;12.134;2024-02-26T01:27:14;96073.06;;;14.90;38.77
20160;BME280;50187;50.492;12.134;2024-02-26T01:30:02;96075.41;;;14.93;38.88
20160;BME280;50187;50.492;12.134;2024-02-26T01:32:49;96080.75;;;14.93;38.93
20160;BME280;50187;50.492;12.134;2024-02-26T01:35:34;96070.06;;;14.93;38.98
20160;BME280;50187;50.492;12.134;2024-02-26T01:38:20;96074.59;;;14.92;38.84
20160;BME280;50187;50.492;12.134;2024-02-26T01:41:05;96076.44;;;14.92;38.90
20160;BME280;50187;50.492;12.134;2024-02-26T01:43:51;96069.72;;;14.88;38.83
20160;BME280;50187;50.492;12.134;2024-02-26T01:46:36;96066.03;;;14.89;38.73
20160;BME280;50187;50.492;12.134;2024-02-26T01:49:21;96063.69;;;14.86;38.98
20160;BME280;50187;50.492;12.134;2024-02-26T01:52:08;96060.84;;;14.87;38.83
20160;BME280;50187;50.492;12.134;2024-02-26T01:54:55;96060.03;;;14.87;38.96
20160;BME280;50187;50.492;12.134;2024-02-26T01:57:43;96058.84;;;14.89;38.90
20160;BME280;50187;50.492;12.134;2024-02-26T02:00:29;96058.16;;;14.87;39.02
20160;BME280;50187;50.492;12.134;2024-02-26T02:03:15;96054.16;;;14.83;38.85
20160;BME280;50187;50.492;12.134;2024-02-26T02:06:01;96055.66;;;14.86;39.04
20160;BME280;50187;50.492;12.134;2024-02-26T02:08:47;96049.31;;;14.87;38.75
20160;BME280;50187;50.492;12.134;2024-02-26T02:11:33;96039.59;;;14.77;38.85
20160;BME280;50187;50.492;12.134;2024-02-26T02:14:19;96052.34;;;14.84;38.76
20160;BME280;50187;50.492;12.134;2024-02-26T02:17:04;96055.00;;;14.84;38.83
20160;BME280;50187;50.492;12.134;2024-02-26T02:19:50;96060.34;;;14.84;38.75
20160;BME280;50187;50.492;12.134;2024-02-26T02:22:35;96066.53;;;14.84;38.75
20160;BME280;50187;50.492;12.134;2024-02-26T02:25:21;96055.84;;;14.84;38.77
20160;BME280;50187;50.492;12.134;2024-02-26T02:28:06;96057.00;;;14.82;38.75
20160;BME280;50187;50.492;12.134;2024-02-26T02:30:51;96060.34;;;14.84;38.96
20160;BME280;50187;50.492;12.134;2024-02-26T02:33:37;96062.34;;;14.82;38.88
20160;BME280;50187;50.492;12.134;2024-02-26T02:36:23;96066.88;;;14.81;39.00
20160;BME280;50187;50.492;12.134;2024-02-26T02:39:08;96066.72;;;14.83;38.94
20160;BME280;50187;50.492;12.134;2024-02-26T02:41:54;96066.06;;;14.81;38.83
20160;BME280;50187;50.492;12.134;2024-02-26T02:44:39;96063.38;;;14.81;38.72
20160;BME280;50187;50.492;12.134;2024-02-26T02:47:25;96060.84;;;14.79;38.88
20160;BME280;50187;50.492;12.134;2024-02-26T02:50:10;96053.66;;;14.80;38.98
20160;BME280;50187;50.492;12.134;2024-02-26T02:52:55;96059.00;;;14.80;38.72
20160;BME280;50187;50.492;12.134;2024-02-26T02:55:41;96061.84;;;14.78;38.82
20160;BME280;50187;50.492;12.134;2024-02-26T02:58:26;96060.00;;;14.79;38.79
20160;BME280;50187;50.492;12.134;2024-02-26T03:01:13;96067.03;;;14.80;38.88
20160;BME280;50187;50.492;12.134;2024-02-26T03:03:58;96068.03;;;14.79;38.81
20160;BME280;50187;50.492;12.134;2024-02-26T03:06:43;96063.69;;;14.77;38.80
20160;BME280;50187;50.492;12.134;2024-02-26T03:09:29;96057.34;;;14.79;38.90
20160;BME280;50187;50.492;12.134;2024-02-26T03:12:14;96065.53;;;14.77;38.82
20160;BME280;50187;50.492;12.134;2024-02-26T03:15:00;96055.81;;;14.76;38.79
20160;BME280;50187;50.492;12.134;2024-02-26T03:17:49;96057.66;;;14.75;38.94
20160;BME280;50187;50.492;12.134;2024-02-26T03:20:35;96059.66;;;14.73;38.96
20160;BME280;50187;50.492;12.134;2024-02-26T03:23:21;96064.53;;;14.70;38.98
20160;BME280;50187;50.492;12.134;2024-02-26T03:26:07;96066.88;;;14.73;38.95
20160;BME280;50187;50.492;12.134;2024-02-26T03:28:54;96056.16;;;14.73;39.04
20160;BME280;50187;50.492;12.134;2024-02-26T03:31:39;96070.34;;;14.73;38.94
20160;BME280;50187;50.492;12.134;2024-02-26T03:34:24;96071.38;;;14.72;38.68
20160;BME280;50187;50.492;12.134;2024-02-26T03:37:11;96070.53;;;14.72;38.92
20160;BME280;50187;50.492;12.134;2024-02-26T03:39:56;96068.88;;;14.71;38.87
20160;BME280;50187;50.492;12.134;2024-02-26T03:42:43;96069.88;;;14.70;38.78
20160;BME280;50187;50.492;12.134;2024-02-26T03:45:28;96072.38;;;14.71;38.84
20160;BME280;50187;50.492;12.134;2024-02-26T03:48:13;96075.22;;;14.70;38.84
20160;BME280;50187;50.492;12.134;2024-02-26T03:50:58;96075.22;;;14.70;38.99
20160;BME280;50187;50.492;12.134;2024-02-26T03:53:44;96072.53;;;14.70;38.85
20160;BME280;50187;50.492;12.134;2024-02-26T03:56:30;96075.22;;;14.70;38.87
20160;BME280;50187;50.492;12.134;2024-02-26T03:59:15;96079.59;;;14.71;38.77
20160;BME280;50187;50.492;12.134;2024-02-26T04:02:00;96074.41;;;14.69;38.83
20160;BME280;50187;50.492;12.134;2024-02-26T04:04:47;96090.44;;;14.69;38.88
20160;BME280;50187;50.492;12.134;2024-02-26T04:07:33;96080.75;;;14.68;38.83
20160;BME280;50187;50.492;12.134;2024-02-26T04:10:18;96095.94;;;14.68;38.81
20160;BME280;50187;50.492;12.134;2024-02-26T04:13:04;96087.91;;;14.68;38.57
20160;BME280;50187;50.492;12.134;2024-02-26T04:15:50;96091.44;;;14.68;38.73
20160;BME280;50187;50.492;12.134;2024-02-26T04:18:36;96081.69;;;14.59;38.77
20160;BME280;50187;50.492;12.134;2024-02-26T04:21:22;96094.47;;;14.65;38.90
20160;BME280;50187;50.492;12.134;2024-02-26T04:24:07;96098.94;;;14.65;38.81
20160;BME280;50187;50.492;12.134;2024-02-26T04:26:52;96095.28;;;14.66;38.70
20160;BME280;50187;50.492;12.134;2024-02-26T04:29:38;96093.75;;;14.63;38.65
20160;BME280;50187;50.492;12.134;2024-02-26T04:32:23;96096.44;;;14.63;38.81
20160;BME280;50187;50.492;12.134;2024-02-26T04:35:08;96091.91;;;14.64;38.73
20160;BME280;50187;50.492;12.134;2024-02-26T04:37:53;96100.09;;;14.62;38.95
20160;BME280;50187;50.492;12.134;2024-02-26T04:40:39;96076.31;;;14.51;38.76
20160;BME280;50187;50.492;12.134;2024-02-26T04:43:24;96092.09;;;14.62;38.89
20160;BME280;50187;50.492;12.134;2024-02-26T04:46:09;96087.72;;;14.61;38.74
20160;BME280;50187;50.492;12.134;2024-02-26T04:48:54;96085.03;;;14.53;38.81
20160;BME280;50187;50.492;12.134;2024-02-26T04:51:42;96088.72;;;14.60;38.85
20160;BME280;50187;50.492;12.134;2024-02-26T04:54:27;96094.22;;;14.58;38.91
20160;BME280;50187;50.492;12.134;2024-02-26T04:57:13;96092.72;;;14.56;38.71
20160;BME280;50187;50.492;12.134;2024-02-26T04:59:58;96086.22;;;14.58;38.70
20160;BME280;50187;50.492;12.134;2024-02-26T05:02:44;96085.50;;;14.56;38.70
20160;BME280;50187;50.492;12.134;2024-02-26T05:05:29;96082.84;;;14.56;38.79
20160;BME280;50187;50.492;12.134;2024-02-26T05:08:14;96081.03;;;14.57;39.01
20160;BME280;50187;50.492;12.134;2024-02-26T05:10:59;96072.81;;;14.50;38.92
20160;BME280;50187;50.492;12.134;2024-02-26T05:13:45;96073.31;;;14.54;38.89
20160;BME280;50187;50.492;12.134;2024-02-26T05:16:31;96079.50;;;14.54;38.86
20160;BME280;50187;50.492;12.134;2024-02-26T05:19:17;96076.13;;;14.52;38.98
20160;BME280;50187;50.492;12.134;2024-02-26T05:22:03;96078.81;;;14.52;38.74
20160;BME280;50187;50.492;12.134;2024-02-26T05:24:48;96075.16;;;14.53;38.82
20160;BME280;50187;50.492;12.134;2024-02-26T05:27:33;96078.00;;;14.52;38.85
20160;BME280;50187;50.492;12.134;2024-02-26T05:30:18;96076.31;;;14.51;38.82
20160;BME280;50187;50.492;12.134;2024-02-26T05:33:04;96079.16;;;14.49;38.81
20160;BME280;50187;50.492;12.134;2024-02-26T05:35:49;96082.31;;;14.45;38.80
20160;BME280;50187;50.492;12.134;2024-02-26T05:38:35;96093.38;;;14.50;38.88
20160;BME280;50187;50.492;12.134;2024-02-26T05:41:21;96092.53;;;14.49;39.04
20160;BME280;50187;50.492;12.134;2024-02-26T05:44:11;96084.00;;;14.46;38.97
20160;BME280;50187;50.492;12.134;2024-02-26T05:46:56;96083.50;;;14.50;38.72
20160;BME280;50187;50.492;12.134;2024-02-26T05:49:41;96093.53;;;14.48;38.80
20160;BME280;50187;50.492;12.134;2024-02-26T05:52:27;96104.25;;;14.48;38.94
20160;BME280;50187;50.492;12.134;2024-02-26T05:55:14;96105.06;;;14.49;38.90
20160;BME280;50187;50.492;12.134;2024-02-26T05:57:59;96110.75;;;14.46;39.06
20160;BME280;50187;50.492;12.134;2024-02-26T06:00:45;96113.25;;;14.47;38.81
20160;BME280;50187;50.492;12.134;2024-02-26T06:03:30;96114.25;;;14.46;38.93
20160;BME280;50187;50.492;12.134;2024-02-26T06:06:16;96113.44;;;14.46;38.91
20160;BME280;50187;50.492;12.134;2024-02-26T06:09:02;96106.56;;;14.43;38.76
20160;BME280;50187;50.492;12.134;2024-02-26T06:11:50;96100.22;;;14.44;38.81
20160;BME280;50187;50.492;12.134;2024-02-26T06:14:35;96106.41;;;14.45;38.82
20160;BME280;50187;50.492;12.134;2024-02-26T06:17:21;96110.06;;;14.43;38.85
20160;BME280;50187;50.492;12.134;2024-02-26T06:20:06;96111.91;;;14.43;38.78
20160;BME280;50187;50.492;12.134;2024-02-26T06:22:57;96107.56;;;14.42;38.79
20160;BME280;50187;50.492;12.134;2024-02-26T06:25:42;96112.06;;;14.41;38.97
20160;BME280;50187;50.492;12.134;2024-02-26T06:28:27;96122.94;;;14.40;38.93
20160;BME280;50187;50.492;12.134;2024-02-26T06:31:15;96122.09;;;14.39;38.99
20160;BME280;50187;50.492;12.134;2024-02-26T06:34:01;96129.94;;;14.41;38.94
20160;BME280;50187;50.492;12.134;2024-02-26T06:36:46;96144.16;;;14.41;38.86
20160;BME280;50187;50.492;12.134;2024-02-26T06:39:32;96133.47;;;14.41;38.96
20160;BME280;50187;50.492;12.134;2024-02-26T06:42:18;96135.28;;;14.41;38.89
20160;BME280;50187;50.492;12.134;2024-02-26T06:45:04;96135.28;;;14.41;38.93
20160;BME280;50187;50.492;12.134;2024-02-26T06:47:50;96129.81;;;14.42;38.84
20160;BME280;50187;50.492;12.134;2024-02-26T06:50:35;96135.28;;;14.41;38.80
20160;BME280;50187;50.492;12.134;2024-02-26T06:53:20;96121.75;;;14.34;38.84
20160;BME280;50187;50.492;12.134;2024-02-26T06:56:06;96135.16;;;14.42;38.74
20160;BME280;50187;50.492;12.134;2024-02-26T06:58:51;96138.81;;;14.41;38.87
20160;BME280;50187;50.492;12.134;2024-02-26T07:01:36;96131.47;;;14.43;38.79
20160;BME280;50187;50.492;12.134;2024-02-26T07:04:22;96138.66;;;14.43;38.74
20160;BME280;50187;50.492;12.134;2024-02-26T07:07:08;96131.63;;;14.42;38.84
20160;BME280;50187;50.492;12.134;2024-02-26T07:09:55;96138.66;;;14.43;38.74
20160;BME280;50187;50.492;12.134;2024-02-26T07:12:40;96141.34;;;14.43;38.80
20160;BME280;50187;50.492;12.134;2024-02-26T07:15:27;96132.16;;;14.46;38.80
20160;BME280;50187;50.492;12.134;2024-02-26T07:18:13;96119.09;;;14.42;38.66
20160;BME280;50187;50.492;12.134;2024-02-26T07:21:01;96137.50;;;14.46;38.84
20160;BME280;50187;50.492;12.134;2024-02-26T07:23:47;96134.66;;;14.47;38.81
20160;BME280;50187;50.492;12.134;2024-02-26T07:26:32;96140.00;;;14.47;38.74
20160;BME280;50187;50.492;12.134;2024-02-26T07:29:18;96149.56;;;14.50;38.84
20160;BME280;50187;50.492;12.134;2024-02-26T07:32:03;96143.19;;;14.51;38.63
20160;BME280;50187;50.492;12.134;2024-02-26T07:34:48;96145.56;;;14.54;38.71
20160;BME280;50187;50.492;12.134;2024-02-26T07:37:34;96140.88;;;14.56;38.59
20160;BME280;50187;50.492;12.134;2024-02-26T07:40:19;96132.84;;;14.56;38.68
20160;BME280;50187;50.492;12.134;2024-02-26T07:43:05;96148.06;;;14.55;38.61
20160;BME280;50187;50.492;12.134;2024-02-26T07:45:50;96139.03;;;14.56;38.41
20160;BME280;50187;50.492;12.134;2024-02-26T07:48:35;96138.88;;;14.58;38.42
20160;BME280;50187;50.492;12.134;2024-02-26T07:51:21;96139.56;;;14.60;38.65
20160;BME280;50187;50.492;12.134;2024-02-26T07:54:07;96151.09;;;14.60;38.52
20160;BME280;50187;50.492;12.134;2024-02-26T07:56:53;96145.22;;;14.57;38.36
20160;BME280;50187;50.492;12.134;2024-02-26T07:59:40;96161.78;;;14.60;38.46
20160;BME280;50187;50.492;12.134;2024-02-26T08:02:25;96158.28;;;14.60;38.41
20160;BME280;50187;50.492;12.134;2024-02-26T08:05:10;96169.97;;;14.59;38.55
20160;BME280;50187;50.492;12.134;2024-02-26T08:07:56;96161.78;;;14.60;38.31
20160;BME280;50187;50.492;12.134;2024-02-26T08:10:43;96174.34;;;14.60;38.48
20160;BME280;50187;50.492;12.134;2024-02-26T08:13:28;96173.34;;;14.61;38.29
20160;BME280;50187;50.492;12.134;2024-02-26T08:16:14;96169.31;;;14.57;38.43
20160;BME280;50187;50.492;12.134;2024-02-26T08:18:59;96173.63;;;14.58;38.39
20160;BME280;50187;50.492;12.134;2024-02-26T08:21:44;96170.16;;;14.57;38.49
20160;BME280;50187;50.492;12.134;2024-02-26T08:24:29;96170.31;;;14.56;38.57
20160;BME280;50187;50.492;12.134;2024-02-26T08:27:15;96172.31;;;14.54;38.52
20160;BME280;50187;50.492;12.134;2024-02-26T08:30:00;96180.34;;;14.54;38.41
20160;BME280;50187;50.492;12.134;2024-02-26T08:32:47;96168.94;;;14.52;38.47
20160;BME280;50187;50.492;12.134;2024-02-26T08:35:37;96165.44;;;14.51;38.27
20160;BME280;50187;50.492;12.134;2024-02-26T08:38:22;96169.94;;;14.51;38.50
20160;BME280;50187;50.492;12.134;2024-02-26T08:41:09;96182.31;;;14.52;38.62
20160;BME280;50187;50.492;12.134;2024-02-26T08:43:54;96182.31;;;14.52;38.58
20160;BME280;50187;50.492;12.134;2024-02-26T08:46:39;96184.63;;;14.47;38.51
20160;BME280;50187;50.492;12.134;2024-02-26T08:49:25;96194.03;;;14.51;38.58
20160;BME280;50187;50.492;12.134;2024-02-26T08:52:10;96190.69;;;14.49;38.68
20160;BME280;50187;50.492;12.134;2024-02-26T08:54:55;96193.53;;;14.47;38.50
20160;BME280;50187;50.492;12.134;2024-02-26T08:57:41;96185.31;;;14.49;38.54
20160;BME280;50187;50.492;12.134;2024-02-26T09:00:27;96183.16;;;14.44;38.63
20160;BME280;50187;50.492;12.134;2024-02-26T09:03:13;96180.13;;;14.47;38.55
20160;BME280;50187;50.492;12.134;2024-02-26T09:05:58;96185.66;;;14.46;38.68
20160;BME280;50187;50.492;12.134;2024-02-26T09:08:44;96184.50;;;14.48;38.67
20160;BME280;50187;50.492;12.134;2024-02-26T09:11:29;96190.69;;;14.49;38.39
20160;BME280;50187;50.492;12.134;2024-02-26T09:14:14;96183.31;;;14.51;38.50
20160;BME280;50187;50.492;12.134;2024-02-26T09:17:00;96177.81;;;14.52;38.49
20160;BME280;50187;50.492;12.134;2024-02-26T09:19:45;96184.84;;;14.53;38.49
20160;BME280;50187;50.492;12.134;2024-02-26T09:22:31;96181.16;;;14.54;38.45
20160;BME280;50187;50.492;12.134;2024-02-26T09:25:17;96184.50;;;14.56;38.36
20160;BME280;50187;50.492;12.134;2024-02-26T09:28:03;96181.66;;;14.58;38.44
20160;BME280;50187;50.492;12.134;2024-02-26T09:30:49;96186.03;;;14.59;38.43
20160;BME280;50187;50.492;12.134;2024-02-26T09:33:35;96182.38;;;14.60;38.41
20160;BME280;50187;50.492;12.134;2024-02-26T09:36:21;96176.31;;;14.58;38.52
20160;BME280;50187;50.492;12.134;2024-02-26T09:39:07;96181.25;;;14.63;38.32
20160;BME280;50187;50.492;12.134;2024-02-26T09:41:57;96183.06;;;14.62;38.48
20160;BME280;50187;50.492;12.134;2024-02-26T09:44:45;96192.44;;;14.66;38.28
20160;BME280;50187;50.492;12.134;2024-02-26T09:47:31;96187.78;;;14.68;38.14
20160;BME280;50187;50.492;12.134;2024-02-26T09:50:17;96190.13;;;14.71;38.18
20160;BME280;50187;50.492;12.134;2024-02-26T09:53:08;96192.16;;;14.77;37.89
20160;BME280;50187;50.492;12.134;2024-02-26T09:55:55;96189.47;;;14.77;38.00
20160;BME280;50187;50.492;12.134;2024-02-26T09:58:42;96190.00;;;14.81;37.97
20160;BME280;50187;50.492;12.134;2024-02-26T10:01:28;96199.22;;;14.87;38.09
20160;BME280;50187;50.492;12.134;2024-02-26T10:04:17;96201.94;;;14.95;37.98
20160;BME280;50187;50.492;12.134;2024-02-26T10:07:04;96185.16;;;14.93;37.91
20160;BME280;50187;50.492;12.134;2024-02-26T10:09:50;96199.59;;;15.08;37.83
20160;BME280;50187;50.492;12.134;2024-02-26T10:12:35;96192.91;;;15.13;37.68
20160;BME280;50187;50.492;12.134;2024-02-26T10:15:21;96189.06;;;15.15;37.64
20160;BME280;50187;50.492;12.134;2024-02-26T10:18:06;96189.56;;;15.10;37.65
20160;BME280;50187;50.492;12.134;2024-02-26T10:20:59;96184.38;;;15.17;37.70
20160;BME280;50187;50.492;12.134;2024-02-26T10:23:47;96185.25;;;15.18;37.67
20160;BME280;50187;50.492;12.134;2024-02-26T10:26:33;96185.41;;;15.16;37.42
20160;BME280;50187;50.492;12.134;2024-02-26T10:29:19;96181.88;;;15.16;37.49
20160;BME280;50187;50.492;12.134;2024-02-26T10:32:05;96174.16;;;15.13;37.57
20160;BME280;50187;50.492;12.134;2024-02-26T10:34:55;96168.50;;;15.07;37.71
20160;BME280;50187;50.492;12.134;2024-02-26T10:37:41;96167.47;;;15.08;37.64
20160;BME280;50187;50.492;12.134;2024-02-26T10:40:26;96165.66;;;15.09;37.59
20160;BME280;50187;50.492;12.134;2024-02-26T10:43:12;96156.75;;;15.08;37.52
20160;BME280;50187;50.492;12.134;2024-02-26T10:46:00;96155.09;;;15.07;37.66
20160;BME280;50187;50.492;12.134;2024-02-26T10:48:53;96152.56;;;15.06;37.73
20160;BME280;50187;50.492;12.134;2024-02-26T10:51:42;96159.44;;;15.08;37.60
20160;BME280;50187;50.492;12.134;2024-02-26T10:54:29;96161.28;;;15.08;37.63
20160;BME280;50187;50.492;12.134;2024-02-26T10:57:17;96162.13;;;15.08;37.47
20160;BME280;50187;50.492;12.134;2024-02-26T11:00:03;96173.84;;;15.07;37.48
20160;BME280;50187;50.492;12.134;2024-02-26T11:02:50;96172.81;;;15.08;37.69
20160;BME280;50187;50.492;12.134;2024-02-26T11:05:36;96172.16;;;15.06;37.62
20160;BME280;50187;50.492;12.134;2024-02-26T11:08:24;96169.66;;;15.05;37.51
20160;BME280;50187;50.492;12.134;2024-02-26T11:11:10;96173.31;;;15.04;37.59
20160;BME280;50187;50.492;12.134;2024-02-26T11:14:01;96185.19;;;15.01;37.64
20160;BME280;50187;50.492;12.134;2024-02-26T11:16:49;96183.50;;;15.00;37.61
20160;BME280;50187;50.492;12.134;2024-02-26T11:19:35;96184.53;;;14.99;37.68
20160;BME280;50187;50.492;12.134;2024-02-26T11:22:23;96190.34;;;14.94;37.75
20160;BME280;50187;50.492;12.134;2024-02-26T11:25:11;96186.69;;;14.96;37.71
20160;BME280;50187;50.492;12.134;2024-02-26T11:28:02;96194.06;;;14.93;37.80
20160;BME280;50187;50.492;12.134;2024-02-26T11:30:49;96182.50;;;14.93;37.66
20160;BME280;50187;50.492;12.134;2024-02-26T11:33:35;96188.69;;;14.93;37.74
20160;BME280;50187;50.492;12.134;2024-02-26T11:36:23;96192.22;;;14.94;37.70
20160;BME280;50187;50.492;12.134;2024-02-26T11:39:11;96186.50;;;14.89;37.56
20160;BME280;50187;50.492;12.134;2024-02-26T11:42:05;96191.03;;;14.97;37.78
20160;BME280;50187;50.492;12.134;2024-02-26T11:44:51;96184.69;;;14.98;37.76
20160;BME280;50187;50.492;12.134;2024-02-26T11:47:36;96185.53;;;14.98;37.80
20160;BME280;50187;50.492;12.134;2024-02-26T11:53:28;96203.97;;;15.09;37.75
20160;BME280;50187;50.492;12.134;2024-02-26T11:59:39;96182.22;;;15.13;37.64
20160;BME280;50187;50.492;12.134;2024-02-26T12:02:49;96185.75;;;15.13;37.71
20160;BME280;50187;50.492;12.134;2024-02-26T12:05:37;96192.91;;;15.13;37.67
20160;BME280;50187;50.492;12.134;2024-02-26T12:08:23;96193.09;;;15.11;37.62
20160;BME280;50187;50.492;12.134;2024-02-26T12:11:16;96208.50;;;15.09;37.35
20160;BME280;50187;50.492;12.134;2024-02-26T12:14:01;96189.56;;;15.10;37.67
20160;BME280;50187;50.492;12.134;2024-02-26T12:16:47;96187.91;;;15.09;37.45
20160;BME280;50187;50.492;12.134;2024-02-26T12:19:34;96179.19;;;15.07;37.61
20160;BME280;50187;50.492;12.134;2024-02-26T12:22:20;96186.38;;;15.07;37.49
20160;BME280;50187;50.492;12.134;2024-02-26T12:25:06;96188.38;;;14.97;37.74
20160;BME280;50187;50.492;12.134;2024-02-26T12:27:51;96188.56;;;15.03;37.54
20160;BME280;50187;50.492;12.134;2024-02-26T12:30:37;96184.19;;;15.02;37.45
20160;BME280;50187;50.492;12.134;2024-02-26T12:33:22;96188.19;;;14.98;37.69
20160;BME280;50187;50.492;12.134;2024-02-26T12:36:08;96212.31;;;14.98;37.71
20160;BME280;50187;50.492;12.134;2024-02-26T12:38:53;96201.44;;;15.00;37.63
20160;BME280;50187;50.492;12.134;2024-02-26T12:41:38;96198.25;;;14.96;37.62
20160;BME280;50187;50.492;12.134;2024-02-26T12:44:26;96201.75;;;14.97;37.69
20160;BME280;50187;50.492;12.134;2024-02-26T12:47:11;96215.31;;;14.95;37.53
20160;BME280;50187;50.492;12.134;2024-02-26T12:50:02;96203.75;;;14.94;37.66
20160;BME280;50187;50.492;12.134;2024-02-26T12:52:53;96212.63;;;14.95;37.76
20160;BME280;50187;50.492;12.134;2024-02-26T12:55:39;96222.47;;;14.94;37.76
20160;BME280;50187;50.492;12.134;2024-02-26T12:58:25;96224.34;;;14.94;37.53
20160;BME280;50187;50.492;12.134;2024-02-26T13:01:15;96226.03;;;14.95;37.61
20160;BME280;50187;50.492;12.134;2024-02-26T13:04:02;96236.72;;;14.95;37.67
20160;BME280;50187;50.492;12.134;2024-02-26T13:06:51;96227.53;;;14.98;37.85
20160;BME280;50187;50.492;12.134;2024-02-26T13:09:37;96234.38;;;15.00;37.57
20160;BME280;50187;50.492;12.134;2024-02-26T13:12:23;96235.25;;;15.01;37.85
20160;BME280;50187;50.492;12.134;2024-02-26T13:15:14;96248.63;;;15.01;37.62
20160;BME280;50187;50.492;12.134;2024-02-26T13:18:09;96251.31;;;15.01;37.55
20160;BME280;50187;50.492;12.134;2024-02-26T13:20:54;96258.66;;;14.99;37.68
20160;BME280;50187;50.492;12.134;2024-02-26T13:23:52;96271.19;;;14.98;37.62
20160;BME280;50187;50.492;12.134;2024-02-26T13:26:38;96263.34;;;14.97;37.64
20160;BME280;50187;50.492;12.134;2024-02-26T13:29:23;96262.81;;;14.93;37.53
20160;BME280;50187;50.492;12.134;2024-02-26T13:32:11;96266.34;;;14.93;37.67
20160;BME280;50187;50.492;12.134;2024-02-26T13:35:24;96269.19;;;14.92;37.71
20160;BME280;50187;50.492;12.134;2024-02-26T13:38:10;96263.13;;;14.90;37.69
20160;BME280;50187;50.492;12.134;2024-02-26T13:40:55;96273.34;;;14.86;37.67
20160;BME280;50187;50.492;12.134;2024-02-26T13:43:41;96281.22;;;14.88;37.69
20160;BME280;50187;50.492;12.134;2024-02-26T13:46:26;96275.16;;;14.86;37.67
20160;BME280;50187;50.492;12.134;2024-02-26T13:49:12;96278.00;;;14.84;37.66
20160;BME280;50187;50.492;12.134;2024-02-26T13:51:57;96275.16;;;14.86;37.84
20160;BME280;50187;50.492;12.134;2024-02-26T13:54:42;96280.34;;;14.87;37.88
20160;BME280;50187;50.492;12.134;2024-02-26T13:57:28;96277.66;;;14.87;37.67
20160;BME280;50187;50.492;12.134;2024-02-26T14:00:14;96274.00;;;14.88;37.72
20160;BME280;50187;50.492;12.134;2024-02-26T14:03:00;96266.97;;;14.87;37.79
20160;BME280;50187;50.492;12.134;2024-02-26T14:05:46;96276.69;;;14.88;37.72
20160;BME280;50187;50.492;12.134;2024-02-26T14:08:33;96280.03;;;14.90;37.71
20160;BME280;50187;50.492;12.134;2024-02-26T14:11:18;96272.16;;;14.89;37.66
20160;BME280;50187;50.492;12.134;2024-02-26T14:14:04;96278.22;;;14.91;37.57
20160;BME280;50187;50.492;12.134;2024-02-26T14:16:49;96281.88;;;14.90;37.65
20160;BME280;50187;50.492;12.134;2024-02-26T14:19:35;96281.88;;;14.90;37.64
20160;BME280;50187;50.492;12.134;2024-02-26T14:22:20;96295.25;;;14.90;37.66
20160;BME280;50187;50.492;12.134;2024-02-26T14:25:06;96275.00;;;14.87;37.70
20160;BME280;50187;50.492;12.134;2024-02-26T14:27:54;96274.66;;;14.90;37.71
20160;BME280;50187;50.492;12.134;2024-02-26T14:30:39;96263.47;;;14.87;37.72
20160;BME280;50187;50.492;12.134;2024-02-26T14:33:25;96269.66;;;14.87;37.77
20160;BME280;50187;50.492;12.134;2024-02-26T14:36:11;96268.81;;;14.87;37.59